Time;durP1;ratioP1;P1;durP2;ratioP2;P2;SDS_P1;SDS_P2;PMS_P1;PMS_P2;Temp;Humidity;BMP_temperature;BMP_pressure;BME280_temperature;BME280_humidity;BME280_pressure;Samples;Min_cycle;Max_cycle;Signal;HPM_P1;HPM_P2
2024/01/18 00:00:39;;;;;;;1.70;1.10;;;;;;;;;;5039071;28;20045;-60
2024/01/18 00:03:05;;;;;;;1.13;0.90;;;;;;;;;;5028359;28;20053;-60
2024/01/18 00:05:31;;;;;;;2.05;0.90;;;;;;;;;;5029126;28;20500;-61
2024/01/18 00:07:57;;;;;;;1.15;0.77;;;;;;;;;;5028776;28;20048;-60
2024/01/18 00:10:26;;;;;;;5.13;1.00;;;;;;;;;;5031474;28;20037;-61
2024/01/18 00:12:53;;;;;;;1.08;0.70;;;;;;;;;;5030324;28;20050;-60
2024/01/18 00:15:19;;;;;;;1.20;1.00;;;;;;;;;;5026150;28;20056;-61
2024/01/18 00:17:45;;;;;;;1.75;1.00;;;;;;;;;;5028812;28;20037;-61
2024/01/18 00:20:11;;;;;;;1.30;0.80;;;;;;;;;;5026823;28;20084;-59
2024/01/18 00:22:37;;;;;;;1.38;0.98;;;;;;;;;;5026864;28;20056;-59
2024/01/18 00:25:04;;;;;;;3.58;0.95;;;;;;;;;;5030948;28;20440;-59
2024/01/18 00:27:30;;;;;;;2.60;1.10;;;;;;;;;;5031503;28;20041;-58
2024/01/18 00:29:56;;;;;;;1.42;0.90;;;;;;;;;;5030947;28;20044;-60
2024/01/18 00:32:23;;;;;;;0.90;0.80;;;;;;;;;;5030449;28;20381;-59
2024/01/18 00:34:49;;;;;;;1.08;0.77;;;;;;;;;;5029906;28;20033;-59
2024/01/18 00:37:15;;;;;;;1.55;0.90;;;;;;;;;;5032176;28;20044;-59
2024/01/18 00:39:42;;;;;;;2.90;1.20;;;;;;;;;;5033068;28;20033;-60
2024/01/18 00:42:08;;;;;;;1.50;0.90;;;;;;;;;;5028516;28;20503;-59
2024/01/18 00:44:35;;;;;;;3.33;1.10;;;;;;;;;;5030123;28;20527;-60
2024/01/18 00:47:01;;;;;;;1.70;0.93;;;;;;;;;;5032340;28;20048;-60
2024/01/18 00:49:27;;;;;;;5.45;1.17;;;;;;;;;;5033697;28;20041;-58
2024/01/18 00:51:53;;;;;;;1.02;0.85;;;;;;;;;;5030793;28;20045;-59
2024/01/18 00:54:19;;;;;;;2.08;0.95;;;;;;;;;;5028975;28;20029;-58
2024/01/18 00:56:45;;;;;;;1.40;0.80;;;;;;;;;;5033573;28;20057;-60
2024/01/18 00:59:11;;;;;;;4.03;0.90;;;;;;;;;;5024157;28;20041;-60
2024/01/18 01:01:37;;;;;;;1.38;0.70;;;;;;;;;;5033269;28;20045;-60
2024/01/18 01:04:04;;;;;;;1.70;0.75;;;;;;;;;;5034664;28;20052;-61
2024/01/18 01:06:30;;;;;;;2.20;0.90;;;;;;;;;;5032787;28;20500;-61
2024/01/18 01:08:56;;;;;;;3.38;0.80;;;;;;;;;;5034920;28;20045;-61
2024/01/18 01:11:22;;;;;;;2.95;1.02;;;;;;;;;;5022327;28;20037;-60
2024/01/18 01:13:48;;;;;;;2.10;1.17;;;;;;;;;;5030653;28;20044;-61
2024/01/18 01:16:14;;;;;;;2.95;1.10;;;;;;;;;;5029591;28;20042;-61
2024/01/18 01:18:40;;;;;;;1.80;1.10;;;;;;;;;;5027195;28;20404;-59
2024/01/18 01:21:07;;;;;;;2.55;0.80;;;;;;;;;;5029035;28;20044;-60
2024/01/18 01:23:38;;;;;;;1.08;0.70;;;;;;;;;;5029289;28;20030;-61
2024/01/18 01:26:04;;;;;;;1.23;0.90;;;;;;;;;;5028926;28;20045;-60
2024/01/18 01:28:30;;;;;;;1.80;1.00;;;;;;;;;;5027361;28;20044;-62
2024/01/18 01:30:56;;;;;;;3.25;1.00;;;;;;;;;;5027982;28;20052;-61
2024/01/18 01:33:22;;;;;;;2.97;1.00;;;;;;;;;;5027222;28;20045;-61
2024/01/18 01:35:48;;;;;;;1.40;0.90;;;;;;;;;;5029334;28;20052;-60
2024/01/18 01:38:15;;;;;;;1.13;0.70;;;;;;;;;;5031370;28;20497;-60
2024/01/18 01:40:41;;;;;;;2.03;0.95;;;;;;;;;;5028663;28;20409;-60
2024/01/18 01:43:09;;;;;;;1.55;0.85;;;;;;;;;;5028146;28;20045;-61
2024/01/18 01:45:35;;;;;;;1.83;0.80;;;;;;;;;;5028469;28;20042;-60
2024/01/18 01:48:01;;;;;;;1.33;0.70;;;;;;;;;;5029454;28;20053;-61
2024/01/18 01:50:28;;;;;;;1.75;0.82;;;;;;;;;;5034680;28;20022;-60
2024/01/18 01:52:54;;;;;;;2.28;1.35;;;;;;;;;;5032830;28;20060;-60
2024/01/18 01:55:21;;;;;;;1.17;0.75;;;;;;;;;;5026955;28;20033;-61
2024/01/18 01:57:47;;;;;;;2.65;1.40;;;;;;;;;;5031469;28;20052;-60
2024/01/18 02:00:15;;;;;;;1.38;0.90;;;;;;;;;;5027336;28;20037;-60
2024/01/18 02:02:42;;;;;;;1.48;0.73;;;;;;;;;;5028685;28;20041;-60
2024/01/18 02:05:09;;;;;;;1.00;0.77;;;;;;;;;;5035000;28;20049;-60
2024/01/18 02:07:38;;;;;;;1.83;1.20;;;;;;;;;;5033980;28;20038;-60
2024/01/18 02:10:05;;;;;;;1.40;0.88;;;;;;;;;;5028536;28;20487;-61
2024/01/18 02:12:32;;;;;;;1.58;0.70;;;;;;;;;;5028253;28;20493;-61
2024/01/18 02:14:58;;;;;;;1.42;0.90;;;;;;;;;;5027704;28;20566;-59
2024/01/18 02:17:25;;;;;;;2.10;0.90;;;;;;;;;;5028693;28;20068;-60
2024/01/18 02:19:51;;;;;;;1.67;0.85;;;;;;;;;;5025736;28;20034;-60
2024/01/18 02:22:20;;;;;;;3.72;0.90;;;;;;;;;;5028241;28;20033;-61
2024/01/18 02:24:50;;;;;;;1.23;0.98;;;;;;;;;;5028219;28;20048;-60
2024/01/18 02:27:17;;;;;;;2.13;0.88;;;;;;;;;;5026621;28;20530;-60
2024/01/18 02:29:43;;;;;;;2.78;0.70;;;;;;;;;;5027950;28;20050;-60
2024/01/18 02:32:09;;;;;;;2.65;0.85;;;;;;;;;;5029221;28;20029;-60
2024/01/18 02:34:39;;;;;;;1.75;0.65;;;;;;;;;;5029458;28;20040;-59
2024/01/18 02:37:07;;;;;;;1.15;0.60;;;;;;;;;;5030739;28;20058;-60
2024/01/18 02:39:34;;;;;;;1.20;0.82;;;;;;;;;;5032336;28;20520;-60
2024/01/18 02:42:01;;;;;;;1.80;0.77;;;;;;;;;;5031894;28;20049;-59
2024/01/18 02:44:28;;;;;;;0.85;0.70;;;;;;;;;;5031396;28;20064;-60
2024/01/18 02:46:54;;;;;;;1.63;0.80;;;;;;;;;;5030555;28;20415;-60
2024/01/18 02:49:20;;;;;;;0.88;0.75;;;;;;;;;;5028965;28;20044;-60
2024/01/18 02:51:47;;;;;;;1.77;0.70;;;;;;;;;;5036202;28;20408;-62
2024/01/18 02:54:13;;;;;;;2.15;0.80;;;;;;;;;;5031614;28;20057;-60
2024/01/18 02:56:39;;;;;;;1.95;0.90;;;;;;;;;;5031655;28;20029;-59
2024/01/18 02:59:05;;;;;;;0.95;0.60;;;;;;;;;;5034614;28;20049;-61
2024/01/18 03:01:32;;;;;;;3.22;0.98;;;;;;;;;;5029422;28;20962;-60
2024/01/18 03:03:58;;;;;;;2.28;0.70;;;;;;;;;;5036531;28;20558;-60
2024/01/18 03:06:24;;;;;;;2.95;0.98;;;;;;;;;;5035978;28;20049;-60
2024/01/18 03:08:50;;;;;;;1.05;0.70;;;;;;;;;;5024761;28;20053;-61
2024/01/18 03:11:16;;;;;;;2.08;0.77;;;;;;;;;;5032493;28;20068;-60
2024/01/18 03:13:42;;;;;;;1.27;0.90;;;;;;;;;;5031427;28;20034;-61
2024/01/18 03:16:08;;;;;;;1.67;0.63;;;;;;;;;;5032425;28;20021;-60
2024/01/18 03:18:35;;;;;;;1.33;0.80;;;;;;;;;;5028656;28;20045;-61
2024/01/18 03:21:07;;;;;;;4.53;1.15;;;;;;;;;;5029073;28;20053;-60
2024/01/18 03:23:33;;;;;;;3.13;1.10;;;;;;;;;;5028782;28;20052;-61
2024/01/18 03:25:59;;;;;;;2.92;1.10;;;;;;;;;;5032395;28;20054;-61
2024/01/18 03:28:25;;;;;;;2.85;1.75;;;;;;;;;;5031565;28;20049;-61
2024/01/18 03:30:51;;;;;;;2.00;0.80;;;;;;;;;;5028760;28;20053;-60
2024/01/18 03:33:17;;;;;;;2.33;1.20;;;;;;;;;;5031077;28;20045;-60
2024/01/18 03:35:43;;;;;;;3.22;1.10;;;;;;;;;;5030554;28;20026;-61
2024/01/18 03:38:09;;;;;;;1.73;1.00;;;;;;;;;;5031848;28;20659;-60
2024/01/18 03:40:37;;;;;;;1.67;1.02;;;;;;;;;;5031669;28;20037;-61
2024/01/18 03:43:03;;;;;;;3.05;1.30;;;;;;;;;;5030058;28;20049;-61
2024/01/18 03:45:31;;;;;;;3.17;1.27;;;;;;;;;;5030154;28;20042;-60
2024/01/18 03:47:57;;;;;;;1.17;0.95;;;;;;;;;;5029393;28;20497;-60
2024/01/18 03:50:23;;;;;;;5.57;1.10;;;;;;;;;;5031959;28;20045;-61
2024/01/18 03:52:49;;;;;;;2.33;1.20;;;;;;;;;;5030022;28;20038;-61
2024/01/18 03:55:15;;;;;;;1.42;0.90;;;;;;;;;;5036265;28;20038;-61
2024/01/18 03:57:42;;;;;;;2.63;1.50;;;;;;;;;;5030712;28;20056;-61
2024/01/18 04:00:12;;;;;;;1.75;1.10;;;;;;;;;;5024628;28;20037;-61
2024/01/18 04:02:38;;;;;;;2.75;1.00;;;;;;;;;;5033830;28;20047;-61
2024/01/18 04:05:05;;;;;;;3.38;1.20;;;;;;;;;;5027377;28;20033;-61
2024/01/18 04:07:31;;;;;;;1.92;0.90;;;;;;;;;;5030445;28;20416;-61
2024/01/18 04:09:57;;;;;;;5.47;1.38;;;;;;;;;;5029271;28;20385;-61
2024/01/18 04:12:23;;;;;;;8.30;1.52;;;;;;;;;;5030226;28;20037;-60
2024/01/18 04:14:49;;;;;;;3.67;1.40;;;;;;;;;;5027417;28;20029;-62
2024/01/18 04:17:16;;;;;;;1.95;1.05;;;;;;;;;;5030528;28;21460;-61
2024/01/18 04:19:42;;;;;;;2.65;1.02;;;;;;;;;;5028139;28;20448;-61
2024/01/18 04:22:08;;;;;;;1.45;0.70;;;;;;;;;;5024176;28;20056;-62
2024/01/18 04:24:34;;;;;;;1.45;1.00;;;;;;;;;;5030028;28;20048;-61
2024/01/18 04:27:00;;;;;;;7.68;1.20;;;;;;;;;;5029228;28;20041;-61
2024/01/18 04:29:27;;;;;;;2.05;0.80;;;;;;;;;;5028544;28;20100;-61
2024/01/18 04:31:54;;;;;;;5.07;0.95;;;;;;;;;;5028369;28;20056;-61
2024/01/18 04:34:20;;;;;;;2.72;1.15;;;;;;;;;;5028334;28;20515;-61
2024/01/18 04:36:46;;;;;;;1.88;1.15;;;;;;;;;;5031512;28;20060;-60
2024/01/18 04:39:14;;;;;;;1.40;0.90;;;;;;;;;;5033104;28;20045;-61
2024/01/18 04:41:40;;;;;;;1.83;0.90;;;;;;;;;;5031293;28;20068;-60
2024/01/18 04:44:06;;;;;;;1.80;1.00;;;;;;;;;;5029196;28;20662;-60
2024/01/18 04:46:32;;;;;;;1.38;1.00;;;;;;;;;;5025362;28;20037;-61
2024/01/18 04:48:58;;;;;;;2.80;0.95;;;;;;;;;;5023743;28;20044;-62
2024/01/18 04:51:24;;;;;;;3.83;1.30;;;;;;;;;;5035209;28;20398;-61
2024/01/18 04:53:50;;;;;;;1.25;1.10;;;;;;;;;;5027586;28;20041;-62
2024/01/18 04:56:16;;;;;;;3.03;1.05;;;;;;;;;;5028744;28;20044;-62
2024/01/18 04:58:43;;;;;;;2.70;1.00;;;;;;;;;;5033810;28;20049;-61
2024/01/18 05:01:10;;;;;;;3.00;0.90;;;;;;;;;;5030014;28;20049;-60
2024/01/18 05:03:36;;;;;;;1.65;0.73;;;;;;;;;;5037516;28;20056;-60
2024/01/18 05:06:02;;;;;;;1.55;1.00;;;;;;;;;;5011804;28;20057;-61
2024/01/18 05:08:29;;;;;;;1.63;1.23;;;;;;;;;;5029360;28;20516;-60
2024/01/18 05:10:55;;;;;;;2.05;1.20;;;;;;;;;;5024918;28;20041;-62
2024/01/18 05:13:21;;;;;;;10.10;2.60;;;;;;;;;;5030127;28;20041;-61
2024/01/18 05:15:48;;;;;;;2.03;0.90;;;;;;;;;;5024275;28;20497;-61
2024/01/18 05:18:14;;;;;;;5.65;1.20;;;;;;;;;;5028348;28;20033;-62
2024/01/18 05:20:40;;;;;;;2.55;0.80;;;;;;;;;;5020707;28;20034;-61
2024/01/18 05:23:06;;;;;;;1.92;0.68;;;;;;;;;;5027730;28;20539;-62
2024/01/18 05:25:32;;;;;;;1.65;0.80;;;;;;;;;;5029473;28;20057;-62
2024/01/18 05:28:00;;;;;;;1.55;0.77;;;;;;;;;;5019535;28;20409;-61
2024/01/18 05:30:26;;;;;;;1.75;0.82;;;;;;;;;;5027254;28;20037;-61
2024/01/18 05:32:52;;;;;;;1.75;0.65;;;;;;;;;;5029503;28;20068;-62
2024/01/18 05:35:18;;;;;;;1.10;0.75;;;;;;;;;;5028485;28;20044;-63
2024/01/18 05:37:44;;;;;;;0.93;0.70;;;;;;;;;;5032803;28;20053;-62
2024/01/18 05:40:11;;;;;;;3.00;0.80;;;;;;;;;;5030929;28;20033;-62
2024/01/18 05:42:38;;;;;;;5.43;1.00;;;;;;;;;;5032835;28;20060;-62
2024/01/18 05:45:05;;;;;;;2.10;0.90;;;;;;;;;;5033436;28;20029;-62
2024/01/18 05:47:31;;;;;;;7.10;1.00;;;;;;;;;;5030394;28;20041;-63
2024/01/18 05:49:57;;;;;;;3.10;0.65;;;;;;;;;;5025847;28;20052;-62
2024/01/18 05:52:24;;;;;;;0.90;0.70;;;;;;;;;;5033936;28;20037;-62
2024/01/18 05:54:50;;;;;;;2.25;0.90;;;;;;;;;;5032379;28;20036;-62
2024/01/18 05:57:16;;;;;;;3.70;0.82;;;;;;;;;;5027809;28;20505;-62
2024/01/18 05:59:42;;;;;;;0.98;0.60;;;;;;;;;;5034484;28;20041;-62
2024/01/18 06:02:09;;;;;;;2.58;0.80;;;;;;;;;;5029471;28;20037;-63
2024/01/18 06:04:35;;;;;;;2.08;0.88;;;;;;;;;;5028326;28;20053;-63
2024/01/18 06:07:01;;;;;;;2.08;0.98;;;;;;;;;;5030081;28;20049;-62
2024/01/18 06:09:29;;;;;;;1.45;0.80;;;;;;;;;;5029501;28;20040;-62
2024/01/18 06:11:55;;;;;;;2.92;1.30;;;;;;;;;;5030201;28;20033;-61
2024/01/18 06:14:21;;;;;;;2.70;0.80;;;;;;;;;;5031806;28;20505;-61
2024/01/18 06:16:47;;;;;;;6.45;1.90;;;;;;;;;;5031675;28;20041;-61
2024/01/18 06:19:13;;;;;;;2.45;1.08;;;;;;;;;;5029472;28;20061;-62
2024/01/18 06:21:39;;;;;;;3.25;1.10;;;;;;;;;;5031857;28;20052;-61
2024/01/18 06:24:06;;;;;;;0.70;0.70;;;;;;;;;;5033306;28;20076;-61
2024/01/18 06:26:32;;;;;;;2.42;1.15;;;;;;;;;;5033821;28;20042;-62
2024/01/18 06:28:58;;;;;;;4.15;0.77;;;;;;;;;;5032400;28;20033;-61
2024/01/18 06:31:27;;;;;;;6.28;1.27;;;;;;;;;;5032392;28;20029;-62
2024/01/18 06:33:53;;;;;;;2.88;1.10;;;;;;;;;;5031891;28;20056;-62
2024/01/18 06:36:19;;;;;;;3.55;1.60;;;;;;;;;;5029844;28;20049;-61
2024/01/18 06:38:45;;;;;;;1.38;0.77;;;;;;;;;;5033303;28;20048;-60
2024/01/18 06:41:12;;;;;;;2.28;0.80;;;;;;;;;;5032827;28;20049;-62
2024/01/18 06:43:38;;;;;;;0.90;0.50;;;;;;;;;;5030748;28;20033;-61
2024/01/18 06:46:04;;;;;;;2.28;1.10;;;;;;;;;;5032548;28;20037;-61
2024/01/18 06:48:30;;;;;;;2.60;1.00;;;;;;;;;;5029989;28;20048;-61
2024/01/18 06:50:56;;;;;;;7.32;1.75;;;;;;;;;;5027618;28;20041;-61
2024/01/18 06:53:23;;;;;;;2.35;0.85;;;;;;;;;;5037629;28;20052;-61
2024/01/18 06:55:49;;;;;;;5.32;0.80;;;;;;;;;;5034795;28;20048;-61
2024/01/18 06:58:16;;;;;;;1.52;0.90;;;;;;;;;;5030470;28;20049;-60
2024/01/18 07:00:42;;;;;;;2.30;1.45;;;;;;;;;;5030651;28;20049;-60
2024/01/18 07:03:08;;;;;;;2.35;0.85;;;;;;;;;;5032389;28;20057;-60
2024/01/18 07:05:34;;;;;;;1.50;0.90;;;;;;;;;;5031386;28;20038;-61
2024/01/18 07:08:00;;;;;;;2.08;0.90;;;;;;;;;;5029414;28;20037;-60
2024/01/18 07:10:26;;;;;;;0.95;0.88;;;;;;;;;;5030052;28;20041;-60
2024/01/18 07:12:52;;;;;;;2.33;0.82;;;;;;;;;;5023604;28;20052;-61
2024/01/18 07:15:19;;;;;;;2.10;0.75;;;;;;;;;;5031048;28;20040;-60
2024/01/18 07:17:45;;;;;;;2.13;1.05;;;;;;;;;;5032741;28;20049;-61
2024/01/18 07:20:12;;;;;;;1.50;0.65;;;;;;;;;;5028214;28;20527;-61
2024/01/18 07:22:38;;;;;;;1.40;0.98;;;;;;;;;;5029353;28;20497;-61
2024/01/18 07:25:06;;;;;;;2.15;0.90;;;;;;;;;;5031546;28;20037;-60
2024/01/18 07:27:32;;;;;;;1.48;0.60;;;;;;;;;;5033102;28;20041;-61
2024/01/18 07:29:58;;;;;;;1.23;0.70;;;;;;;;;;5028492;28;20041;-62
2024/01/18 07:32:24;;;;;;;1.63;0.70;;;;;;;;;;5031391;28;20448;-61
2024/01/18 07:34:50;;;;;;;2.42;0.77;;;;;;;;;;5028666;28;20060;-62
2024/01/18 07:37:16;;;;;;;1.00;0.70;;;;;;;;;;5030943;28;20501;-61
2024/01/18 07:39:44;;;;;;;1.40;0.82;;;;;;;;;;5029309;28;20033;-61
2024/01/18 07:42:10;;;;;;;0.70;0.57;;;;;;;;;;5030314;28;20500;-61
2024/01/18 07:44:38;;;;;;;0.73;0.70;;;;;;;;;;5034564;28;20049;-61
2024/01/18 07:47:06;;;;;;;0.60;0.50;;;;;;;;;;5032504;28;20569;-61
2024/01/18 07:49:33;;;;;;;0.50;0.50;;;;;;;;;;5028449;28;20044;-61
2024/01/18 07:51:59;;;;;;;0.88;0.65;;;;;;;;;;5030628;28;20500;-61
2024/01/18 07:54:25;;;;;;;3.45;0.85;;;;;;;;;;5027399;28;20508;-60
2024/01/18 07:56:51;;;;;;;3.38;0.70;;;;;;;;;;5036154;28;20044;-61
2024/01/18 07:59:17;;;;;;;1.40;0.98;;;;;;;;;;5034116;28;20037;-60
2024/01/18 08:01:45;;;;;;;1.48;0.70;;;;;;;;;;5033945;28;20041;-61
2024/01/18 08:04:11;;;;;;;1.30;0.70;;;;;;;;;;5029693;28;20072;-60
2024/01/18 08:06:37;;;;;;;0.82;0.52;;;;;;;;;;5028881;28;20037;-60
2024/01/18 08:09:03;;;;;;;1.23;0.60;;;;;;;;;;5029877;28;20559;-60
2024/01/18 08:11:29;;;;;;;2.38;1.50;;;;;;;;;;5028654;28;20033;-60
2024/01/18 08:13:55;;;;;;;1.45;1.15;;;;;;;;;;5027611;28;20042;-60
2024/01/18 08:16:21;;;;;;;2.03;1.20;;;;;;;;;;5031372;28;20037;-60
2024/01/18 08:18:47;;;;;;;4.40;1.08;;;;;;;;;;5026671;28;20034;-60
2024/01/18 08:21:13;;;;;;;1.98;0.60;;;;;;;;;;5023099;28;20029;-60
2024/01/18 08:23:39;;;;;;;1.10;0.80;;;;;;;;;;5029804;28;20067;-60
2024/01/18 08:26:07;;;;;;;1.70;0.90;;;;;;;;;;5030142;28;20033;-60
2024/01/18 08:28:33;;;;;;;0.80;0.63;;;;;;;;;;5030089;28;20037;-60
2024/01/18 08:30:59;;;;;;;2.42;0.80;;;;;;;;;;5027571;28;20426;-60
2024/01/18 08:33:25;;;;;;;2.33;0.98;;;;;;;;;;5032199;28;20041;-60
2024/01/18 08:35:52;;;;;;;1.27;0.80;;;;;;;;;;5028956;28;20497;-60
2024/01/18 08:38:20;;;;;;;1.65;0.60;;;;;;;;;;5028876;28;20037;-60
2024/01/18 08:40:47;;;;;;;1.27;0.67;;;;;;;;;;5027566;28;20037;-60
2024/01/18 08:43:13;;;;;;;31.75;10.15;;;;;;;;;;5030174;28;20049;-62
2024/01/18 08:45:41;;;;;;;14.63;5.00;;;;;;;;;;5031351;28;20041;-60
2024/01/18 08:48:07;;;;;;;10.05;4.32;;;;;;;;;;5034379;28;20029;-61
2024/01/18 08:50:34;;;;;;;9.85;3.75;;;;;;;;;;5029371;28;20501;-61
2024/01/18 08:53:00;;;;;;;21.13;7.22;;;;;;;;;;5027889;28;20489;-62
2024/01/18 08:55:27;;;;;;;13.30;6.65;;;;;;;;;;5035231;28;20041;-61
2024/01/18 08:57:53;;;;;;;13.20;6.72;;;;;;;;;;5029762;28;20064;-61
2024/01/18 09:00:21;;;;;;;53.90;17.40;;;;;;;;;;5021207;28;20058;-60
2024/01/18 09:02:47;;;;;;;42.97;15.32;;;;;;;;;;5026806;28;20037;-60
2024/01/18 09:05:14;;;;;;;25.05;10.77;;;;;;;;;;5028733;28;20048;-61
2024/01/18 09:07:40;;;;;;;21.17;10.75;;;;;;;;;;5028135;28;20396;-60
2024/01/18 09:10:08;;;;;;;19.75;9.07;;;;;;;;;;5028335;28;20064;-60
2024/01/18 09:12:35;;;;;;;22.45;11.75;;;;;;;;;;5030594;28;20056;-60
2024/01/18 09:15:02;;;;;;;15.30;8.25;;;;;;;;;;5029673;28;20068;-60
2024/01/18 09:17:29;;;;;;;14.45;7.55;;;;;;;;;;5030466;28;20527;-61
2024/01/18 09:19:55;;;;;;;23.02;10.35;;;;;;;;;;5023729;28;20524;-60
2024/01/18 09:22:21;;;;;;;31.45;12.80;;;;;;;;;;5026102;28;20509;-60
2024/01/18 09:24:49;;;;;;;32.70;11.57;;;;;;;;;;5030079;28;20040;-59
2024/01/18 09:27:15;;;;;;;60.17;21.10;;;;;;;;;;5028033;28;20030;-61
2024/01/18 09:29:41;;;;;;;43.05;16.77;;;;;;;;;;5031950;28;20029;-61
2024/01/18 09:32:07;;;;;;;49.60;17.92;;;;;;;;;;5029320;28;20065;-61
2024/01/18 09:34:33;;;;;;;48.55;17.80;;;;;;;;;;5030867;28;20036;-60
2024/01/18 09:36:59;;;;;;;46.70;19.10;;;;;;;;;;5032839;28;20045;-60
2024/01/18 09:39:25;;;;;;;20.73;10.38;;;;;;;;;;5026794;28;20045;-60
2024/01/18 09:41:53;;;;;;;25.17;11.63;;;;;;;;;;5027637;28;20443;-61
2024/01/18 09:44:25;;;;;;;22.10;10.82;;;;;;;;;;5028203;28;20045;-60
2024/01/18 09:46:55;;;;;;;15.48;8.55;;;;;;;;;;5030364;28;20048;-60
2024/01/18 09:49:21;;;;;;;16.48;9.10;;;;;;;;;;5035721;28;20041;-61
2024/01/18 09:51:47;;;;;;;16.17;9.55;;;;;;;;;;5034170;28;20045;-60
2024/01/18 09:54:13;;;;;;;17.83;9.80;;;;;;;;;;5036847;28;20770;-61
2024/01/18 09:56:45;;;;;;;18.17;9.88;;;;;;;;;;5037775;28;20033;-60
2024/01/18 09:59:18;;;;;;;18.00;9.43;;;;;;;;;;5037094;28;20041;-60
2024/01/18 10:01:46;;;;;;;18.25;10.18;;;;;;;;;;5030371;28;20049;-60
2024/01/18 10:04:12;;;;;;;20.92;9.60;;;;;;;;;;5032258;28;20037;-59
2024/01/18 10:06:39;;;;;;;16.90;8.45;;;;;;;;;;5033993;28;20512;-59
2024/01/18 10:09:05;;;;;;;13.48;8.13;;;;;;;;;;5032029;28;20046;-59
2024/01/18 10:11:31;;;;;;;15.70;7.90;;;;;;;;;;5033145;28;20041;-60
2024/01/18 10:13:59;;;;;;;12.98;6.78;;;;;;;;;;5030383;28;20049;-60
2024/01/18 10:16:28;;;;;;;9.57;6.40;;;;;;;;;;5032740;28;20034;-60
2024/01/18 10:18:57;;;;;;;10.85;6.78;;;;;;;;;;5031255;28;20049;-60
2024/01/18 10:21:23;;;;;;;10.50;6.20;;;;;;;;;;5031038;28;20052;-60
2024/01/18 10:23:51;;;;;;;12.35;5.53;;;;;;;;;;5036222;28;20045;-61
2024/01/18 10:26:18;;;;;;;7.63;5.03;;;;;;;;;;5031878;28;20044;-60
2024/01/18 10:28:44;;;;;;;8.23;4.60;;;;;;;;;;5034354;28;20048;-60
2024/01/18 10:31:10;;;;;;;6.13;4.05;;;;;;;;;;5027748;28;20408;-61
2024/01/18 10:33:36;;;;;;;9.30;4.70;;;;;;;;;;5030237;28;20060;-60
2024/01/18 10:36:02;;;;;;;8.93;4.32;;;;;;;;;;5033700;28;20043;-60
2024/01/18 10:38:39;;;;;;;6.72;3.72;;;;;;;;;;5030771;28;20041;-60
2024/01/18 10:41:08;;;;;;;8.27;4.40;;;;;;;;;;5035321;28;20049;-61
2024/01/18 10:43:35;;;;;;;4.07;2.88;;;;;;;;;;5033364;28;20044;-60
2024/01/18 10:46:03;;;;;;;4.55;2.50;;;;;;;;;;5031288;28;20029;-61
2024/01/18 10:48:30;;;;;;;4.35;2.85;;;;;;;;;;5030982;28;20061;-61
2024/01/18 10:50:57;;;;;;;5.25;3.25;;;;;;;;;;5030798;28;20025;-61
2024/01/18 10:53:24;;;;;;;4.70;3.38;;;;;;;;;;5024905;28;20044;-61
2024/01/18 10:55:51;;;;;;;4.20;3.38;;;;;;;;;;5031353;28;20044;-61
2024/01/18 10:58:19;;;;;;;6.32;3.35;;;;;;;;;;5034419;28;20046;-61
2024/01/18 11:00:46;;;;;;;6.72;3.53;;;;;;;;;;5030006;28;20045;-61
2024/01/18 11:03:15;;;;;;;8.27;3.78;;;;;;;;;;5031041;28;20052;-61
2024/01/18 11:05:45;;;;;;;11.35;4.25;;;;;;;;;;5031340;28;20049;-61
2024/01/18 11:08:12;;;;;;;13.10;4.47;;;;;;;;;;5032682;28;20049;-61
2024/01/18 11:10:40;;;;;;;10.02;3.90;;;;;;;;;;5030373;28;20044;-61
2024/01/18 11:13:07;;;;;;;7.75;3.92;;;;;;;;;;5030607;28;20041;-61
2024/01/18 11:15:36;;;;;;;5.40;2.83;;;;;;;;;;5033716;28;20029;-61
2024/01/18 11:18:09;;;;;;;6.40;3.38;;;;;;;;;;5029216;28;20076;-62
2024/01/18 11:20:58;;;;;;;4.47;3.05;;;;;;;;;;5030050;28;20033;-61
2024/01/18 11:23:28;;;;;;;8.13;3.70;;;;;;;;;;5029405;28;20030;-60
2024/01/18 11:25:55;;;;;;;9.05;3.55;;;;;;;;;;5033223;28;20033;-61
2024/01/18 11:28:22;;;;;;;6.07;2.85;;;;;;;;;;5033888;28;20049;-61
2024/01/18 11:30:49;;;;;;;6.78;2.83;;;;;;;;;;5029615;28;20042;-60
2024/01/18 11:33:15;;;;;;;6.72;2.90;;;;;;;;;;5032647;28;20030;-60
2024/01/18 11:35:42;;;;;;;4.13;2.15;;;;;;;;;;5030259;28;20037;-62
2024/01/18 11:38:20;;;;;;;5.07;2.30;;;;;;;;;;5030172;28;20409;-62
2024/01/18 11:40:55;;;;;;;3.13;2.03;;;;;;;;;;5030985;28;20034;-61
2024/01/18 11:43:23;;;;;;;4.93;2.35;;;;;;;;;;5034337;28;20036;-61
2024/01/18 11:45:52;;;;;;;5.82;2.47;;;;;;;;;;5032762;28;20414;-61
2024/01/18 11:48:18;;;;;;;9.43;3.13;;;;;;;;;;5032941;28;20053;-61
2024/01/18 11:50:45;;;;;;;9.15;3.35;;;;;;;;;;5036499;28;20037;-61
2024/01/18 11:53:14;;;;;;;10.30;3.80;;;;;;;;;;5034502;28;20045;-61
2024/01/18 11:55:46;;;;;;;12.35;5.97;;;;;;;;;;5029375;28;20053;-61
2024/01/18 11:58:12;;;;;;;5.40;2.90;;;;;;;;;;5029743;28;20042;-61
2024/01/18 12:00:38;;;;;;;7.70;3.67;;;;;;;;;;5029211;28;20056;-61
2024/01/18 12:03:07;;;;;;;8.48;4.20;;;;;;;;;;5029757;28;20447;-61
2024/01/18 12:05:35;;;;;;;11.00;4.53;;;;;;;;;;5026364;28;20040;-60
2024/01/18 12:08:01;;;;;;;9.20;4.53;;;;;;;;;;5029900;28;20037;-60
2024/01/18 12:10:29;;;;;;;17.58;7.15;;;;;;;;;;5029657;28;20041;-61
2024/01/18 12:12:56;;;;;;;18.42;7.97;;;;;;;;;;5030020;28;20033;-61
2024/01/18 12:15:23;;;;;;;14.18;6.20;;;;;;;;;;5027692;28;20038;-61
2024/01/18 12:17:49;;;;;;;13.52;5.68;;;;;;;;;;5029789;28;20030;-61
2024/01/18 12:20:17;;;;;;;12.25;6.20;;;;;;;;;;5029437;28;20037;-61
2024/01/18 12:22:43;;;;;;;6.18;3.33;;;;;;;;;;5032254;28;20045;-61
2024/01/18 12:25:09;;;;;;;4.50;3.10;;;;;;;;;;5031875;28;20053;-61
2024/01/18 12:27:36;;;;;;;6.32;3.40;;;;;;;;;;5032247;28;20037;-61
2024/01/18 12:30:03;;;;;;;8.40;3.72;;;;;;;;;;5029475;28;20056;-61
2024/01/18 12:32:31;;;;;;;8.85;4.05;;;;;;;;;;5029324;28;20037;-60
2024/01/18 12:34:57;;;;;;;7.30;4.05;;;;;;;;;;5032938;28;20038;-62
2024/01/18 12:37:24;;;;;;;6.65;3.75;;;;;;;;;;5030141;28;20037;-61
2024/01/18 12:39:53;;;;;;;7.10;3.83;;;;;;;;;;5028066;28;20045;-61
2024/01/18 12:42:20;;;;;;;4.38;3.50;;;;;;;;;;5031147;28;20037;-61
2024/01/18 12:44:52;;;;;;;4.55;3.35;;;;;;;;;;5033541;28;20045;-62
2024/01/18 12:47:18;;;;;;;5.93;3.55;;;;;;;;;;5036886;28;20041;-60
2024/01/18 12:49:45;;;;;;;7.90;3.97;;;;;;;;;;5023985;28;20037;-61
2024/01/18 12:52:15;;;;;;;6.05;3.90;;;;;;;;;;5028048;28;20113;-62
2024/01/18 12:54:43;;;;;;;7.65;4.40;;;;;;;;;;5024148;28;20037;-62
2024/01/18 12:57:09;;;;;;;9.07;4.03;;;;;;;;;;5036056;28;20029;-62
2024/01/18 12:59:35;;;;;;;9.95;4.55;;;;;;;;;;5028687;28;20512;-63
2024/01/18 13:02:01;;;;;;;7.82;4.22;;;;;;;;;;5029222;28;20042;-64
2024/01/18 13:04:31;;;;;;;10.18;4.90;;;;;;;;;;5027907;28;20040;-63
2024/01/18 13:06:58;;;;;;;10.18;4.90;;;;;;;;;;5025813;28;20037;-62
2024/01/18 13:09:29;;;;;;;9.50;5.15;;;;;;;;;;5025893;28;20042;-62
2024/01/18 13:11:56;;;;;;;8.95;4.60;;;;;;;;;;5029791;28;20044;-63
2024/01/18 13:14:22;;;;;;;7.85;4.32;;;;;;;;;;5028482;28;20041;-63
2024/01/18 13:16:50;;;;;;;5.93;4.25;;;;;;;;;;5031936;28;20052;-63
2024/01/18 13:19:20;;;;;;;6.43;4.22;;;;;;;;;;5030050;28;20041;-64
2024/01/18 13:21:46;;;;;;;5.57;4.10;;;;;;;;;;5026180;28;20053;-63
2024/01/18 13:24:13;;;;;;;5.47;4.07;;;;;;;;;;5029081;28;20109;-65
2024/01/18 13:26:40;;;;;;;7.18;4.47;;;;;;;;;;5033717;28;20052;-65
2024/01/18 13:29:08;;;;;;;7.00;3.63;;;;;;;;;;5024730;28;20053;-64
2024/01/18 13:31:35;;;;;;;10.43;5.00;;;;;;;;;;5030265;28;20048;-64
2024/01/18 13:34:03;;;;;;;6.90;4.00;;;;;;;;;;5024016;28;20100;-64
2024/01/18 13:36:30;;;;;;;6.80;4.47;;;;;;;;;;5025779;28;20053;-65
2024/01/18 13:38:56;;;;;;;6.57;4.55;;;;;;;;;;5028676;28;20045;-64
2024/01/18 13:41:23;;;;;;;6.35;4.20;;;;;;;;;;5026069;28;20066;-65
2024/01/18 13:43:49;;;;;;;6.97;4.15;;;;;;;;;;5034059;28;21086;-64
2024/01/18 13:46:15;;;;;;;7.00;4.90;;;;;;;;;;5034523;28;20033;-65
2024/01/18 13:48:42;;;;;;;5.47;3.97;;;;;;;;;;5029870;28;20041;-65
2024/01/18 13:51:09;;;;;;;5.68;4.10;;;;;;;;;;5027773;28;20033;-64
2024/01/18 13:53:35;;;;;;;8.38;5.22;;;;;;;;;;5036391;28;20667;-64
2024/01/18 13:56:02;;;;;;;8.20;5.00;;;;;;;;;;5035319;28;20036;-65
2024/01/18 13:58:28;;;;;;;7.97;4.93;;;;;;;;;;5011701;28;20029;-65
2024/01/18 14:00:54;;;;;;;7.72;4.95;;;;;;;;;;5027477;28;20041;-66
2024/01/18 14:03:20;;;;;;;7.22;5.07;;;;;;;;;;5028083;28;20049;-65
2024/01/18 14:05:47;;;;;;;8.65;5.53;;;;;;;;;;5029328;28;20049;-65
2024/01/18 14:08:13;;;;;;;9.43;6.13;;;;;;;;;;5028784;28;20029;-66
2024/01/18 14:10:39;;;;;;;8.38;5.45;;;;;;;;;;5024556;28;20037;-65
2024/01/18 14:13:06;;;;;;;7.25;4.95;;;;;;;;;;5030351;28;20053;-65
2024/01/18 14:15:33;;;;;;;8.13;5.25;;;;;;;;;;5031572;28;20052;-65
2024/01/18 14:18:00;;;;;;;11.95;5.85;;;;;;;;;;5031998;28;20588;-65
2024/01/18 14:20:26;;;;;;;10.68;6.75;;;;;;;;;;5028274;28;20041;-66
2024/01/18 14:22:52;;;;;;;9.48;6.00;;;;;;;;;;5032085;28;20131;-67
2024/01/18 14:25:19;;;;;;;9.27;5.82;;;;;;;;;;5029543;28;20030;-66
2024/01/18 14:27:45;;;;;;;13.13;6.82;;;;;;;;;;5032573;28;20037;-66
2024/01/18 14:30:12;;;;;;;12.50;7.68;;;;;;;;;;5030888;28;20041;-66
2024/01/18 14:32:38;;;;;;;11.40;7.35;;;;;;;;;;5033072;28;20046;-66
2024/01/18 14:35:05;;;;;;;14.93;8.20;;;;;;;;;;5029059;28;20048;-64
2024/01/18 14:37:38;;;;;;;12.50;8.10;;;;;;;;;;5035844;28;20041;-65